Kitanomaru — JD2835 — position and weather

sailwx.info

Track history (hours):
 
Tides and Currents Weather Stations Pressure Air Temp Water Temp Dewpoint Dewpoint Depression Visibility Wind Speed Wind Dir Waves Ship Positions

Kitanomaru

Last reported at 2015-Aug-02 07:33 UTC. Time now 2015-Aug-02 08:16 UTC.
Position N 35°36' E 140°07'.

Length 39 m; draft 4 m.

Type: Tug. MMSI: 431000773.

Date/timePositionNaut miles runAvg speedWind from/ knotsBaromVisibWave heightAir tempDewpointWater temp
2015-Aug-02 07:33N 35°36' E 140°07'0 0.0
2015-Aug-02 06:33N 35°36' E 140°07'8 8.4
2015-Aug-02 05:34N 35°30' E 139°59'2 2.1
2015-Aug-02 04:34N 35°28' E 139°58'2 2.1
2015-Aug-02 03:34N 35°30' E 139°56'2 2.2
2015-Aug-02 02:33N 35°29' E 139°58'0 0.0
2015-Aug-02 01:34N 35°29' E 139°58'0 0.0
2015-Aug-02 00:33N 35°29' E 139°58'3 2.7
2015-Aug-01 23:33N 35°30' E 140°02'7 7.4
2015-Aug-01 22:34N 35°36' E 140°07'0 0.1
2015-Aug-01 21:34N 35°36' E 140°07'0 0.0
2015-Aug-01 20:33N 35°36' E 140°07'0 0.0
2015-Aug-01 19:33N 35°36' E 140°07'0 0.0
2015-Aug-01 18:33N 35°36' E 140°07'0 0.0
2015-Aug-01 17:33N 35°36' E 140°07'0 0.0
2015-Aug-01 16:33N 35°36' E 140°07'0 0.0
2015-Aug-01 15:34N 35°36' E 140°07'0 0.0
2015-Aug-01 14:34N 35°36' E 140°07'0 0.0
2015-Aug-01 13:33N 35°36' E 140°07'0 0.0
2015-Aug-01 12:33N 35°36' E 140°07'0 0.0
2015-Aug-01 11:33N 35°36' E 140°07'0 0.0
2015-Aug-01 10:34N 35°36' E 140°07'0 0.0
2015-Aug-01 09:33N 35°36' E 140°07'0 0.0
2015-Aug-01 08:33N 35°36' E 140°07'6 6.4
2015-Aug-01 07:33N 35°37' E 139°59'3 2.8
2015-Aug-01 06:33N 35°40' E 139°59'8 7.6
2015-Aug-01 05:34N 35°35' E 140°06'0 0.5
2015-Aug-01 04:34N 35°36' E 140°07'0 0.0
2015-Aug-01 03:34N 35°36' E 140°07'0 0.0
2015-Aug-01 02:33N 35°36' E 140°07'0 0.0
2015-Aug-01 01:34N 35°36' E 140°07'2 2.0
2015-Aug-01 00:33N 35°35' E 140°04'0 0.3
2015-Jul-31 23:33N 35°35' E 140°05'1 0.9
2015-Jul-31 22:34N 35°36' E 140°06'1 1.2
2015-Jul-31 21:34N 35°35' E 140°04'0 0.0
2015-Jul-31 20:33N 35°35' E 140°04'2 2.2
2015-Jul-31 19:33N 35°36' E 140°07'0 0.0
2015-Jul-31 18:33N 35°36' E 140°07'0 0.0
2015-Jul-31 17:33N 35°36' E 140°07'0 0.0
2015-Jul-31 16:33N 35°36' E 140°07'0 0.0
2015-Jul-31 15:33N 35°36' E 140°07'0 0.0
2015-Jul-31 14:34N 35°36' E 140°07'0 0.0
2015-Jul-31 13:33N 35°36' E 140°07'0 0.0
2015-Jul-31 12:33N 35°36' E 140°07'0 0.0
2015-Jul-31 11:33N 35°36' E 140°07'0 0.0
2015-Jul-31 10:34N 35°36' E 140°07'0 0.0
2015-Jul-31 09:34N 35°36' E 140°07'0 0.0
2015-Jul-31 08:33N 35°36' E 140°07'1 0.6
2015-Jul-31 07:34N 35°35' E 140°06'0 0.2
2015-Jul-31 06:34N 35°35' E 140°06'4 3.9
2015-Jul-31 05:33N 35°35' E 140°02'0 0.2
2015-Jul-31 04:34N 35°35' E 140°01'0 0.0
2015-Jul-31 03:33N 35°35' E 140°01'0 0.1
2015-Jul-31 02:33N 35°35' E 140°01'6 5.6
2015-Jul-31 01:34N 35°31' E 139°56'0 0.3
2015-Jul-31 00:33N 35°31' E 139°56'3 2.8
2015-Jul-30 23:34N 35°29' E 139°58'2 2.2
2015-Jul-30 22:33N 35°30' E 140°00'8 7.9
2015-Jul-30 21:33N 35°36' E 140°07'0 0.0
2015-Jul-30 20:33N 35°36' E 140°07'0 0.0
2015-Jul-30 19:34N 35°36' E 140°07'0 0.0
2015-Jul-30 18:33N 35°36' E 140°07'0 0.0
2015-Jul-30 17:33N 35°36' E 140°07'0 0.0
2015-Jul-30 16:33N 35°36' E 140°07'0 0.0
2015-Jul-30 15:34N 35°36' E 140°07'0 0.0
2015-Jul-30 14:34N 35°36' E 140°07'0 0.0
2015-Jul-30 13:34N 35°36' E 140°07'0 0.0
2015-Jul-30 12:34N 35°36' E 140°07'0 0.0
2015-Jul-30 11:33N 35°36' E 140°07'1 0.9
2015-Jul-30 10:33N 35°36' E 140°06'1 0.9
2015-Jul-30 09:33N 35°36' E 140°07'0 0.0
2015-Jul-30 08:34N 35°36' E 140°07'0 0.0
2015-Jul-30 07:33N 35°36' E 140°07'0 0.0
2015-Jul-30 06:34N 35°36' E 140°07'0 0.4
2015-Jul-30 05:33N 35°35' E 140°07'9 9.1
2015-Jul-30 04:34N 35°31' E 139°57'1 0.5
2015-Jul-30 03:34N 35°31' E 139°56'0 0.4
2015-Jul-30 02:34N 35°31' E 139°56'2 1.9
2015-Jul-30 01:34N 35°29' E 139°54'2 1.5
2015-Jul-30 00:34N 35°29' E 139°56'4 3.6
2015-Jul-29 23:33N 35°29' E 140°00'9 8.7
2015-Jul-29 22:33N 35°36' E 140°07'0 0.1
2015-Jul-29 21:32N 35°36' E 140°07'0 0.0
2015-Jul-29 20:33N 35°36' E 140°07'0 0.0
2015-Jul-29 19:33N 35°36' E 140°07'0 0.0
2015-Jul-29 18:33N 35°36' E 140°07'0 0.0
2015-Jul-29 17:33N 35°36' E 140°07'0 0.0
2015-Jul-29 16:33N 35°36' E 140°07'0 0.0
2015-Jul-29 15:33N 35°36' E 140°07'0 0.0
2015-Jul-29 14:33N 35°36' E 140°07'0 0.0
2015-Jul-29 13:32N 35°36' E 140°07'0 0.0
2015-Jul-29 12:32N 35°36' E 140°07'0 0.0
2015-Jul-29 11:33N 35°36' E 140°07'0 0.0
2015-Jul-29 10:33N 35°36' E 140°07'0 0.0
2015-Jul-29 09:33N 35°36' E 140°07'0 0.0
2015-Jul-29 08:33N 35°36' E 140°07'0 0.0
2015-Jul-29 07:33N 35°36' E 140°07'0 0.0
2015-Jul-29 06:33N 35°36' E 140°07'0 0.0
2015-Jul-29 05:33N 35°36' E 140°07'0 0.0
2015-Jul-29 04:33N 35°36' E 140°07'9 9.4
2015-Jul-29 03:33N 35°31' E 139°57'1 0.7
2015-Jul-29 02:33N 35°31' E 139°56'1 0.5
2015-Jul-29 01:33N 35°30' E 139°56'2 2.3
2015-Jul-29 00:33N 35°29' E 139°54'5 5.1
2015-Jul-28 23:33N 35°31' E 139°59'6 6.1
2015-Jul-28 22:33N 35°33' E 140°06'3 3.0
2015-Jul-28 21:33N 35°34' E 140°03'1 1.2
2015-Jul-28 20:33N 35°35' E 140°03'3 3.3
2015-Jul-28 19:33N 35°36' E 140°07'0 0.0
2015-Jul-28 18:33N 35°36' E 140°07'0 0.0
2015-Jul-28 17:33N 35°36' E 140°07'0 0.0
2015-Jul-28 16:34N 35°36' E 140°07'0 0.0
2015-Jul-28 15:32N 35°36' E 140°07'0 0.0
2015-Jul-28 14:33N 35°36' E 140°07'0 0.0
2015-Jul-28 13:33N 35°36' E 140°07'0 0.0
2015-Jul-28 12:34N 35°36' E 140°07'0 0.0
2015-Jul-28 11:33N 35°36' E 140°07'0 0.0
2015-Jul-28 10:34N 35°36' E 140°07'0 0.0
2015-Jul-28 09:33N 35°36' E 140°07'0 0.0
2015-Jul-28 08:33N 35°36' E 140°07'6 6.0
2015-Jul-28 07:33N 35°37' E 139°60'2 2.5
2015-Jul-28 06:33N 35°40' E 139°59'7 7.3
2015-Jul-28 05:33N 35°36' E 140°07'0 0.0
2015-Jul-28 04:33N 35°36' E 140°07'0 0.0
2015-Jul-28 03:33N 35°36' E 140°07'1 1.0
2015-Jul-28 02:33N 35°35' E 140°06'1 1.0
2015-Jul-28 01:33N 35°36' E 140°07'0 0.0
2015-Jul-28 00:33N 35°36' E 140°07'0 0.0
2015-Jul-27 23:33N 35°36' E 140°07'0 0.0
2015-Jul-27 22:33N 35°36' E 140°07'0 0.0
2015-Jul-27 21:33N 35°36' E 140°07'0 0.0
2015-Jul-27 20:33N 35°36' E 140°07'0 0.0
2015-Jul-27 19:33N 35°36' E 140°07'0 0.0
2015-Jul-27 18:33N 35°36' E 140°07'0 0.0
2015-Jul-27 17:33N 35°36' E 140°07'0 0.0
2015-Jul-27 16:33N 35°36' E 140°07'0 0.0
2015-Jul-27 15:33N 35°36' E 140°07'0 0.0
2015-Jul-27 14:33N 35°36' E 140°07'0 0.0
2015-Jul-27 13:33N 35°36' E 140°07'0 0.0
2015-Jul-27 12:33N 35°36' E 140°07'0 0.0
2015-Jul-27 11:32N 35°36' E 140°07'0 0.0
2015-Jul-27 10:33N 35°36' E 140°07'0 0.0
2015-Jul-27 09:33N 35°36' E 140°07'0 0.0
2015-Jul-27 08:33N 35°36' E 140°07'0 0.0
2015-Jul-27 07:33N 35°36' E 140°07'1 0.6
2015-Jul-27 06:33N 35°35' E 140°06'5 5.5
2015-Jul-27 05:33N 35°33' E 140°00'3 3.1
2015-Jul-27 04:34N 35°32' E 139°56'0 0.1
2015-Jul-27 03:33N 35°32' E 139°57'0 0.0
2015-Jul-27 02:33N 35°32' E 139°57'0 0.0
2015-Jul-27 01:34N 35°32' E 139°57'2 1.7
2015-Jul-27 00:33N 35°31' E 139°56'6 6.0
2015-Jul-26 23:33N 35°34' E 140°02'3 3.1
2015-Jul-26 22:33N 35°36' E 140°05'5 5.4
2015-Jul-26 21:33N 35°33' E 139°60'2 2.4
2015-Jul-26 20:33N 35°34' E 140°02'4 4.1
2015-Jul-26 19:33N 35°36' E 140°07'0 0.0
2015-Jul-26 18:33N 35°36' E 140°07'0 0.0
2015-Jul-26 17:33N 35°36' E 140°07'0 0.0
2015-Jul-26 16:33N 35°36' E 140°07'0 0.0
2015-Jul-26 15:33N 35°36' E 140°07'0 0.0
2015-Jul-26 14:33N 35°36' E 140°07'0 0.0
2015-Jul-26 13:33N 35°36' E 140°07'0 0.0
2015-Jul-26 12:33N 35°36' E 140°07'0 0.0
2015-Jul-26 11:33N 35°36' E 140°07'0 0.0
2015-Jul-26 10:33N 35°36' E 140°07'0 0.0
2015-Jul-26 09:33N 35°36' E 140°07'0 0.0
2015-Jul-26 08:33N 35°36' E 140°07'0 0.0
2015-Jul-26 07:33N 35°36' E 140°07'0 0.0
2015-Jul-26 06:33N 35°36' E 140°07'0 0.0
2015-Jul-26 05:33N 35°36' E 140°07'0 0.0
2015-Jul-26 04:33N 35°36' E 140°07'0 0.0
2015-Jul-26 03:33N 35°36' E 140°07'0 0.0
2015-Jul-26 02:34N 35°36' E 140°07'0 0.0
2015-Jul-26 01:34N 35°36' E 140°07'0 0.0
2015-Jul-26 00:33N 35°36' E 140°07'0 0.0
2015-Jul-25 23:33N 35°36' E 140°07'0 0.0
2015-Jul-25 22:34N 35°36' E 140°07'0 0.0
2015-Jul-25 21:33N 35°36' E 140°07'0 0.0
2015-Jul-25 20:33N 35°36' E 140°07'0 0.0
2015-Jul-25 19:33N 35°36' E 140°07'0 0.0
2015-Jul-25 18:33N 35°36' E 140°07'0 0.0
2015-Jul-25 17:33N 35°36' E 140°07'0 0.0
2015-Jul-25 16:33N 35°36' E 140°07'0 0.0
2015-Jul-25 15:33N 35°36' E 140°07'0 0.0
2015-Jul-25 14:34N 35°36' E 140°07'0 0.0
2015-Jul-25 13:33N 35°36' E 140°07'0 0.0
2015-Jul-25 12:33N 35°36' E 140°07'0 0.0
2015-Jul-25 11:33N 35°36' E 140°07'0 0.0
2015-Jul-25 10:33N 35°36' E 140°07'7 7.4
2015-Jul-25 09:33N 35°30' E 140°02'0 0.1
2015-Jul-25 08:33N 35°30' E 140°02'2 2.1
2015-Jul-25 07:33N 35°31' E 139°60'1 1.3
2015-Jul-25 06:33N 35°32' E 139°58'0 0.0
2015-Jul-25 05:33N 35°32' E 139°58'2 2.1
2015-Jul-25 04:33N 35°31' E 139°56'0 0.0
2015-Jul-25 03:33N 35°31' E 139°56'1 1.1
2015-Jul-25 02:33N 35°30' E 139°55'2 2.3
2015-Jul-25 01:33N 35°32' E 139°57'9 8.9
2015-Jul-25 00:33N 35°36' E 140°07'0 0.0
2015-Jul-24 23:33N 35°36' E 140°07'2 1.5
2015-Jul-24 22:33N 35°35' E 140°05'3 2.9
2015-Jul-24 21:33N 35°34' E 140°02'3 3.3
2015-Jul-24 20:34N 35°36' E 140°06'1 1.1
2015-Jul-24 19:33N 35°36' E 140°07'0 0.0
2015-Jul-24 18:33N 35°36' E 140°07'0 0.0
2015-Jul-24 17:33N 35°36' E 140°07'0 0.0
2015-Jul-24 16:33N 35°36' E 140°07'0 0.0
2015-Jul-24 15:33N 35°36' E 140°07'0 0.0
2015-Jul-24 14:33N 35°36' E 140°07'0 0.0
2015-Jul-24 13:34N 35°36' E 140°07'0 0.0
2015-Jul-24 12:33N 35°36' E 140°07'0 0.0
2015-Jul-24 11:33N 35°36' E 140°07'8 8.2
2015-Jul-24 10:33N 35°30' E 139°59'2 2.0
2015-Jul-24 09:33N 35°29' E 139°58'0 0.4
2015-Jul-24 08:33N 35°29' E 139°58'0 0.0
2015-Jul-24 07:33N 35°29' E 139°58'0 0.0
2015-Jul-24 06:33N 35°29' E 139°58'0 0.0
2015-Jul-24 05:33N 35°29' E 139°58'0 0.0
2015-Jul-24 04:33N 35°29' E 139°58'1 0.5
2015-Jul-24 03:33N 35°28' E 139°58'4 4.3
2015-Jul-24 02:33N 35°32' E 140°01'6 6.1
2015-Jul-24 01:33N 35°36' E 140°07'0 0.0
2015-Jul-24 00:33N 35°36' E 140°07'0 0.0
2015-Jul-23 23:33N 35°36' E 140°07'0 0.0
2015-Jul-23 22:33N 35°36' E 140°07'0 0.0
2015-Jul-23 21:33N 35°36' E 140°07'0 0.0
2015-Jul-23 20:33N 35°36' E 140°07'0 0.0
2015-Jul-23 19:33N 35°36' E 140°07'0 0.0
2015-Jul-23 18:33N 35°36' E 140°07'0 0.0
2015-Jul-23 17:33N 35°36' E 140°07'0 0.0
2015-Jul-23 16:33N 35°36' E 140°07'0 0.0
2015-Jul-23 15:33N 35°36' E 140°07'0 0.0
2015-Jul-23 14:34N 35°36' E 140°07'0 0.0
2015-Jul-23 13:33N 35°36' E 140°07'0 0.0
2015-Jul-23 12:33N 35°36' E 140°07'0 0.0
2015-Jul-23 11:33N 35°36' E 140°07'5 5.0
2015-Jul-23 10:33N 35°32' E 140°02'3 2.6
2015-Jul-23 09:33N 35°30' E 140°02'0 0.2
2015-Jul-23 08:33N 35°30' E 140°01'2 1.6
2015-Jul-23 07:33N 35°31' E 139°60'  
Track history (hours):
 
Tides and Currents Weather Stations Pressure Air Temp Water Temp Dewpoint Dewpoint Depression Visibility Wind Speed Wind Dir Waves Ship Positions

Kitanomaru

Last reported at 2015-Aug-02 07:33 UTC. Time now 2015-Aug-02 08:16 UTC.
Position N 35°36' E 140°07'.

Length 39 m; draft 4 m.

Type: Tug. MMSI: 431000773.

Date/timePositionNaut miles runAvg speedWind from/ knotsBaromVisibWave heightAir tempDewpointWater temp
2015-Aug-02 07:33N 35°36' E 140°07'0 0.0
2015-Aug-02 06:33N 35°36' E 140°07'8 8.4
2015-Aug-02 05:34N 35°30' E 139°59'2 2.1
2015-Aug-02 04:34N 35°28' E 139°58'2 2.1
2015-Aug-02 03:34N 35°30' E 139°56'2 2.2
2015-Aug-02 02:33N 35°29' E 139°58'0 0.0
2015-Aug-02 01:34N 35°29' E 139°58'0 0.0
2015-Aug-02 00:33N 35°29' E 139°58'3 2.7
2015-Aug-01 23:33N 35°30' E 140°02'7 7.4
2015-Aug-01 22:34N 35°36' E 140°07'0 0.1
2015-Aug-01 21:34N 35°36' E 140°07'0 0.0
2015-Aug-01 20:33N 35°36' E 140°07'0 0.0
2015-Aug-01 19:33N 35°36' E 140°07'0 0.0
2015-Aug-01 18:33N 35°36' E 140°07'0 0.0
2015-Aug-01 17:33N 35°36' E 140°07'0 0.0
2015-Aug-01 16:33N 35°36' E 140°07'0 0.0
2015-Aug-01 15:34N 35°36' E 140°07'0 0.0
2015-Aug-01 14:34N 35°36' E 140°07'0 0.0
2015-Aug-01 13:33N 35°36' E 140°07'0 0.0
2015-Aug-01 12:33N 35°36' E 140°07'0 0.0
2015-Aug-01 11:33N 35°36' E 140°07'0 0.0
2015-Aug-01 10:34N 35°36' E 140°07'0 0.0
2015-Aug-01 09:33N 35°36' E 140°07'0 0.0
2015-Aug-01 08:33N 35°36' E 140°07'6 6.4
2015-Aug-01 07:33N 35°37' E 139°59'3 2.8
2015-Aug-01 06:33N 35°40' E 139°59'8 7.6
2015-Aug-01 05:34N 35°35' E 140°06'0 0.5
2015-Aug-01 04:34N 35°36' E 140°07'0 0.0
2015-Aug-01 03:34N 35°36' E 140°07'0 0.0
2015-Aug-01 02:33N 35°36' E 140°07'0 0.0
2015-Aug-01 01:34N 35°36' E 140°07'2 2.0
2015-Aug-01 00:33N 35°35' E 140°04'0 0.3
2015-Jul-31 23:33N 35°35' E 140°05'1 0.9
2015-Jul-31 22:34N 35°36' E 140°06'1 1.2
2015-Jul-31 21:34N 35°35' E 140°04'0 0.0
2015-Jul-31 20:33N 35°35' E 140°04'2 2.2
2015-Jul-31 19:33N 35°36' E 140°07'0 0.0
2015-Jul-31 18:33N 35°36' E 140°07'0 0.0
2015-Jul-31 17:33N 35°36' E 140°07'0 0.0
2015-Jul-31 16:33N 35°36' E 140°07'0 0.0
2015-Jul-31 15:33N 35°36' E 140°07'0 0.0
2015-Jul-31 14:34N 35°36' E 140°07'0 0.0
2015-Jul-31 13:33N 35°36' E 140°07'0 0.0
2015-Jul-31 12:33N 35°36' E 140°07'0 0.0
2015-Jul-31 11:33N 35°36' E 140°07'0 0.0
2015-Jul-31 10:34N 35°36' E 140°07'0 0.0
2015-Jul-31 09:34N 35°36' E 140°07'0 0.0
2015-Jul-31 08:33N 35°36' E 140°07'1 0.6
2015-Jul-31 07:34N 35°35' E 140°06'0 0.2
2015-Jul-31 06:34N 35°35' E 140°06'4 3.9
2015-Jul-31 05:33N 35°35' E 140°02'0 0.2
2015-Jul-31 04:34N 35°35' E 140°01'0 0.0
2015-Jul-31 03:33N 35°35' E 140°01'0 0.1
2015-Jul-31 02:33N 35°35' E 140°01'6 5.6
2015-Jul-31 01:34N 35°31' E 139°56'0 0.3
2015-Jul-31 00:33N 35°31' E 139°56'3 2.8
2015-Jul-30 23:34N 35°29' E 139°58'2 2.2
2015-Jul-30 22:33N 35°30' E 140°00'8 7.9
2015-Jul-30 21:33N 35°36' E 140°07'0 0.0
2015-Jul-30 20:33N 35°36' E 140°07'0 0.0
2015-Jul-30 19:34N 35°36' E 140°07'0 0.0
2015-Jul-30 18:33N 35°36' E 140°07'0 0.0
2015-Jul-30 17:33N 35°36' E 140°07'0 0.0
2015-Jul-30 16:33N 35°36' E 140°07'0 0.0
2015-Jul-30 15:34N 35°36' E 140°07'0 0.0
2015-Jul-30 14:34N 35°36' E 140°07'0 0.0
2015-Jul-30 13:34N 35°36' E 140°07'0 0.0
2015-Jul-30 12:34N 35°36' E 140°07'0 0.0
2015-Jul-30 11:33N 35°36' E 140°07'1 0.9
2015-Jul-30 10:33N 35°36' E 140°06'1 0.9
2015-Jul-30 09:33N 35°36' E 140°07'0 0.0
2015-Jul-30 08:34N 35°36' E 140°07'0 0.0
2015-Jul-30 07:33N 35°36' E 140°07'0 0.0
2015-Jul-30 06:34N 35°36' E 140°07'0 0.4
2015-Jul-30 05:33N 35°35' E 140°07'9 9.1
2015-Jul-30 04:34N 35°31' E 139°57'1 0.5
2015-Jul-30 03:34N 35°31' E 139°56'0 0.4
2015-Jul-30 02:34N 35°31' E 139°56'2 1.9
2015-Jul-30 01:34N 35°29' E 139°54'2 1.5
2015-Jul-30 00:34N 35°29' E 139°56'4 3.6
2015-Jul-29 23:33N 35°29' E 140°00'9 8.7
2015-Jul-29 22:33N 35°36' E 140°07'0 0.1
2015-Jul-29 21:32N 35°36' E 140°07'0 0.0
2015-Jul-29 20:33N 35°36' E 140°07'0 0.0
2015-Jul-29 19:33N 35°36' E 140°07'0 0.0
2015-Jul-29 18:33N 35°36' E 140°07'0 0.0
2015-Jul-29 17:33N 35°36' E 140°07'0 0.0
2015-Jul-29 16:33N 35°36' E 140°07'0 0.0
2015-Jul-29 15:33N 35°36' E 140°07'0 0.0
2015-Jul-29 14:33N 35°36' E 140°07'0 0.0
2015-Jul-29 13:32N 35°36' E 140°07'0 0.0
2015-Jul-29 12:32N 35°36' E 140°07'0 0.0
2015-Jul-29 11:33N 35°36' E 140°07'0 0.0
2015-Jul-29 10:33N 35°36' E 140°07'0 0.0
2015-Jul-29 09:33N 35°36' E 140°07'0 0.0
2015-Jul-29 08:33N 35°36' E 140°07'0 0.0
2015-Jul-29 07:33N 35°36' E 140°07'0 0.0
2015-Jul-29 06:33N 35°36' E 140°07'0 0.0
2015-Jul-29 05:33N 35°36' E 140°07'0 0.0
2015-Jul-29 04:33N 35°36' E 140°07'9 9.4
2015-Jul-29 03:33N 35°31' E 139°57'1 0.7
2015-Jul-29 02:33N 35°31' E 139°56'1 0.5
2015-Jul-29 01:33N 35°30' E 139°56'2 2.3
2015-Jul-29 00:33N 35°29' E 139°54'5 5.1
2015-Jul-28 23:33N 35°31' E 139°59'6 6.1
2015-Jul-28 22:33N 35°33' E 140°06'3 3.0
2015-Jul-28 21:33N 35°34' E 140°03'1 1.2
2015-Jul-28 20:33N 35°35' E 140°03'3 3.3
2015-Jul-28 19:33N 35°36' E 140°07'0 0.0
2015-Jul-28 18:33N 35°36' E 140°07'0 0.0
2015-Jul-28 17:33N 35°36' E 140°07'0 0.0
2015-Jul-28 16:34N 35°36' E 140°07'0 0.0
2015-Jul-28 15:32N 35°36' E 140°07'0 0.0
2015-Jul-28 14:33N 35°36' E 140°07'0 0.0
2015-Jul-28 13:33N 35°36' E 140°07'0 0.0
2015-Jul-28 12:34N 35°36' E 140°07'0 0.0
2015-Jul-28 11:33N 35°36' E 140°07'0 0.0
2015-Jul-28 10:34N 35°36' E 140°07'0 0.0
2015-Jul-28 09:33N 35°36' E 140°07'0 0.0
2015-Jul-28 08:33N 35°36' E 140°07'6 6.0
2015-Jul-28 07:33N 35°37' E 139°60'2 2.5
2015-Jul-28 06:33N 35°40' E 139°59'7 7.3
2015-Jul-28 05:33N 35°36' E 140°07'0 0.0
2015-Jul-28 04:33N 35°36' E 140°07'0 0.0
2015-Jul-28 03:33N 35°36' E 140°07'1 1.0
2015-Jul-28 02:33N 35°35' E 140°06'1 1.0
2015-Jul-28 01:33N 35°36' E 140°07'0 0.0
2015-Jul-28 00:33N 35°36' E 140°07'0 0.0
2015-Jul-27 23:33N 35°36' E 140°07'0 0.0
2015-Jul-27 22:33N 35°36' E 140°07'0 0.0
2015-Jul-27 21:33N 35°36' E 140°07'0 0.0
2015-Jul-27 20:33N 35°36' E 140°07'0 0.0
2015-Jul-27 19:33N 35°36' E 140°07'0 0.0
2015-Jul-27 18:33N 35°36' E 140°07'0 0.0
2015-Jul-27 17:33N 35°36' E 140°07'0 0.0
2015-Jul-27 16:33N 35°36' E 140°07'0 0.0
2015-Jul-27 15:33N 35°36' E 140°07'0 0.0
2015-Jul-27 14:33N 35°36' E 140°07'0 0.0
2015-Jul-27 13:33N 35°36' E 140°07'0 0.0
2015-Jul-27 12:33N 35°36' E 140°07'0 0.0
2015-Jul-27 11:32N 35°36' E 140°07'0 0.0
2015-Jul-27 10:33N 35°36' E 140°07'0 0.0
2015-Jul-27 09:33N 35°36' E 140°07'0 0.0
2015-Jul-27 08:33N 35°36' E 140°07'0 0.0
2015-Jul-27 07:33N 35°36' E 140°07'1 0.6
2015-Jul-27 06:33N 35°35' E 140°06'5 5.5
2015-Jul-27 05:33N 35°33' E 140°00'3 3.1
2015-Jul-27 04:34N 35°32' E 139°56'0 0.1
2015-Jul-27 03:33N 35°32' E 139°57'0 0.0
2015-Jul-27 02:33N 35°32' E 139°57'0 0.0
2015-Jul-27 01:34N 35°32' E 139°57'2 1.7
2015-Jul-27 00:33N 35°31' E 139°56'6 6.0
2015-Jul-26 23:33N 35°34' E 140°02'3 3.1
2015-Jul-26 22:33N 35°36' E 140°05'5 5.4
2015-Jul-26 21:33N 35°33' E 139°60'2 2.4
2015-Jul-26 20:33N 35°34' E 140°02'4 4.1
2015-Jul-26 19:33N 35°36' E 140°07'0 0.0
2015-Jul-26 18:33N 35°36' E 140°07'0 0.0
2015-Jul-26 17:33N 35°36' E 140°07'0 0.0
2015-Jul-26 16:33N 35°36' E 140°07'0 0.0
2015-Jul-26 15:33N 35°36' E 140°07'0 0.0
2015-Jul-26 14:33N 35°36' E 140°07'0 0.0
2015-Jul-26 13:33N 35°36' E 140°07'0 0.0
2015-Jul-26 12:33N 35°36' E 140°07'0 0.0
2015-Jul-26 11:33N 35°36' E 140°07'0 0.0
2015-Jul-26 10:33N 35°36' E 140°07'0 0.0
2015-Jul-26 09:33N 35°36' E 140°07'0 0.0
2015-Jul-26 08:33N 35°36' E 140°07'0 0.0
2015-Jul-26 07:33N 35°36' E 140°07'0 0.0
2015-Jul-26 06:33N 35°36' E 140°07'0 0.0
2015-Jul-26 05:33N 35°36' E 140°07'0 0.0
2015-Jul-26 04:33N 35°36' E 140°07'0 0.0
2015-Jul-26 03:33N 35°36' E 140°07'0 0.0
2015-Jul-26 02:34N 35°36' E 140°07'0 0.0
2015-Jul-26 01:34N 35°36' E 140°07'0 0.0
2015-Jul-26 00:33N 35°36' E 140°07'0 0.0
2015-Jul-25 23:33N 35°36' E 140°07'0 0.0
2015-Jul-25 22:34N 35°36' E 140°07'0 0.0
2015-Jul-25 21:33N 35°36' E 140°07'0 0.0
2015-Jul-25 20:33N 35°36' E 140°07'0 0.0
2015-Jul-25 19:33N 35°36' E 140°07'0 0.0
2015-Jul-25 18:33N 35°36' E 140°07'0 0.0
2015-Jul-25 17:33N 35°36' E 140°07'0 0.0
2015-Jul-25 16:33N 35°36' E 140°07'0 0.0
2015-Jul-25 15:33N 35°36' E 140°07'0 0.0
2015-Jul-25 14:34N 35°36' E 140°07'0 0.0
2015-Jul-25 13:33N 35°36' E 140°07'0 0.0
2015-Jul-25 12:33N 35°36' E 140°07'0 0.0
2015-Jul-25 11:33N 35°36' E 140°07'0 0.0
2015-Jul-25 10:33N 35°36' E 140°07'7 7.4
2015-Jul-25 09:33N 35°30' E 140°02'0 0.1
2015-Jul-25 08:33N 35°30' E 140°02'2 2.1
2015-Jul-25 07:33N 35°31' E 139°60'1 1.3
2015-Jul-25 06:33N 35°32' E 139°58'0 0.0
2015-Jul-25 05:33N 35°32' E 139°58'2 2.1
2015-Jul-25 04:33N 35°31' E 139°56'0 0.0
2015-Jul-25 03:33N 35°31' E 139°56'1 1.1
2015-Jul-25 02:33N 35°30' E 139°55'2 2.3
2015-Jul-25 01:33N 35°32' E 139°57'9 8.9
2015-Jul-25 00:33N 35°36' E 140°07'0 0.0
2015-Jul-24 23:33N 35°36' E 140°07'2 1.5
2015-Jul-24 22:33N 35°35' E 140°05'3 2.9
2015-Jul-24 21:33N 35°34' E 140°02'3 3.3
2015-Jul-24 20:34N 35°36' E 140°06'1 1.1
2015-Jul-24 19:33N 35°36' E 140°07'0 0.0
2015-Jul-24 18:33N 35°36' E 140°07'0 0.0
2015-Jul-24 17:33N 35°36' E 140°07'0 0.0
2015-Jul-24 16:33N 35°36' E 140°07'0 0.0
2015-Jul-24 15:33N 35°36' E 140°07'0 0.0
2015-Jul-24 14:33N 35°36' E 140°07'0 0.0
2015-Jul-24 13:34N 35°36' E 140°07'0 0.0
2015-Jul-24 12:33N 35°36' E 140°07'0 0.0
2015-Jul-24 11:33N 35°36' E 140°07'8 8.2
2015-Jul-24 10:33N 35°30' E 139°59'2 2.0
2015-Jul-24 09:33N 35°29' E 139°58'0 0.4
2015-Jul-24 08:33N 35°29' E 139°58'0 0.0
2015-Jul-24 07:33N 35°29' E 139°58'0 0.0
2015-Jul-24 06:33N 35°29' E 139°58'0 0.0
2015-Jul-24 05:33N 35°29' E 139°58'0 0.0
2015-Jul-24 04:33N 35°29' E 139°58'1 0.5
2015-Jul-24 03:33N 35°28' E 139°58'4 4.3
2015-Jul-24 02:33N 35°32' E 140°01'6 6.1
2015-Jul-24 01:33N 35°36' E 140°07'0 0.0
2015-Jul-24 00:33N 35°36' E 140°07'0 0.0
2015-Jul-23 23:33N 35°36' E 140°07'0 0.0
2015-Jul-23 22:33N 35°36' E 140°07'0 0.0
2015-Jul-23 21:33N 35°36' E 140°07'0 0.0
2015-Jul-23 20:33N 35°36' E 140°07'0 0.0
2015-Jul-23 19:33N 35°36' E 140°07'0 0.0
2015-Jul-23 18:33N 35°36' E 140°07'0 0.0
2015-Jul-23 17:33N 35°36' E 140°07'0 0.0
2015-Jul-23 16:33N 35°36' E 140°07'0 0.0
2015-Jul-23 15:33N 35°36' E 140°07'0 0.0
2015-Jul-23 14:34N 35°36' E 140°07'0 0.0
2015-Jul-23 13:33N 35°36' E 140°07'0 0.0
2015-Jul-23 12:33N 35°36' E 140°07'0 0.0
2015-Jul-23 11:33N 35°36' E 140°07'5 5.0
2015-Jul-23 10:33N 35°32' E 140°02'3 2.6
2015-Jul-23 09:33N 35°30' E 140°02'0 0.2
2015-Jul-23 08:33N 35°30' E 140°01'2 1.6
2015-Jul-23 07:33N 35°31' E 139°60'  

Dump ship's entire track history